Time;durP1;ratioP1;P1;durP2;ratioP2;P2;SDS_P1;SDS_P2;PMS_P1;PMS_P2;Temp;Humidity;BMP_temperature;BMP_pressure;BME280_temperature;BME280_humidity;BME280_pressure;Samples;Min_cycle;Max_cycle;Signal;HPM_P1;HPM_P2
2023/04/30 00:01:14;;;;;;;20.73;15.52;;;;;;;;;;6245193;28;20325;-79
2023/04/30 00:04:16;;;;;;;21.48;15.93;;;;;;;;;;6247255;28;20053;-79
2023/04/30 00:07:18;;;;;;;23.92;15.60;;;;;;;;;;6242604;28;20060;-79
2023/04/30 00:10:21;;;;;;;23.27;16.63;;;;;;;;;;6239225;28;20052;-79
2023/04/30 00:13:23;;;;;;;20.60;15.55;;;;;;;;;;6246863;28;20054;-79
2023/04/30 00:16:25;;;;;;;21.10;15.60;;;;;;;;;;6243137;28;20754;-79
2023/04/30 00:19:27;;;;;;;19.15;15.00;;;;;;;;;;6241639;28;20403;-79
2023/04/30 00:22:29;;;;;;;23.95;15.82;;;;;;;;;;6242402;28;20046;-79
2023/04/30 00:25:32;;;;;;;23.17;15.95;;;;;;;;;;6246809;28;20046;-79
2023/04/30 00:28:34;;;;;;;25.25;16.10;;;;;;;;;;6245178;28;20060;-79
2023/04/30 00:31:40;;;;;;;23.83;16.40;;;;;;;;;;6244844;28;20052;-78
2023/04/30 00:34:42;;;;;;;20.85;15.60;;;;;;;;;;6238695;28;20095;-79
2023/04/30 00:38:38;;;;;;;22.77;16.45;;;;;;;;;;6229400;28;20053;-78
2023/04/30 00:41:46;;;;;;;21.83;16.20;;;;;;;;;;6247023;28;20435;-79
2023/04/30 00:44:50;;;;;;;21.33;15.80;;;;;;;;;;6241198;28;20674;-79
2023/04/30 00:47:54;;;;;;;20.80;16.15;;;;;;;;;;6241092;28;20069;-79
2023/04/30 00:50:56;;;;;;;24.65;16.42;;;;;;;;;;6243101;28;20045;-79
2023/04/30 00:54:17;;;;;;;20.17;16.42;;;;;;;;;;6244474;28;20057;-79
2023/04/30 00:57:21;;;;;;;25.17;16.52;;;;;;;;;;6234994;28;20124;-79
2023/04/30 01:00:23;;;;;;;;;;;;;;;;;;6241258;28;20050;-79
2023/04/30 01:03:28;;;;;;;25.92;17.65;;;;;;;;;;6245450;28;20267;-79
2023/04/30 01:06:33;;;;;;;22.25;17.55;;;;;;;;;;6241946;28;20356;-79
2023/04/30 01:09:35;;;;;;;21.20;15.48;;;;;;;;;;6244669;28;20058;-79
2023/04/30 01:12:48;;;;;;;22.45;16.42;;;;;;;;;;6239464;28;20053;-78
2023/04/30 01:15:56;;;;;;;24.00;17.13;;;;;;;;;;6240183;28;20242;-78
2023/04/30 01:19:16;;;;;;;21.52;16.85;;;;;;;;;;6241984;28;20058;-79
2023/04/30 01:22:30;;;;;;;23.90;18.45;;;;;;;;;;6242475;28;20123;-78
2023/04/30 01:25:35;;;;;;;;;;;;;;;;;;6242795;28;20053;-79
2023/04/30 01:28:39;;;;;;;22.30;16.33;;;;;;;;;;6242714;28;20181;-79
2023/04/30 01:31:44;;;;;;;23.42;17.88;;;;;;;;;;6242237;28;20116;-79
2023/04/30 01:34:46;;;;;;;22.98;17.90;;;;;;;;;;6241499;28;20269;-79
2023/04/30 01:37:58;;;;;;;22.23;18.05;;;;;;;;;;6198670;28;20113;-79
2023/04/30 01:41:07;;;;;;;22.67;17.48;;;;;;;;;;6198962;28;20066;-79
2023/04/30 01:44:31;;;;;;;24.77;18.38;;;;;;;;;;6187933;28;20092;-79
2023/04/30 01:48:10;;;;;;;25.17;18.33;;;;;;;;;;6197229;28;20061;-79
2023/04/30 01:51:30;;;;;;;26.95;19.67;;;;;;;;;;6166437;28;20090;-79
2023/04/30 01:54:36;;;;;;;29.63;19.25;;;;;;;;;;6150005;28;20110;-79
2023/04/30 02:02:02;;;;;;;25.10;19.63;;;;;;;;;;6101111;29;20160;-79
2023/04/30 02:09:22;;;;;;;26.00;20.00;;;;;;;;;;5916066;30;20052;-78
2023/04/30 02:12:24;;;;;;;28.27;19.70;;;;;;;;;;5924656;30;20067;-78
2023/04/30 02:15:26;;;;;;;28.42;20.23;;;;;;;;;;5924924;30;20117;-78
2023/04/30 02:18:45;;;;;;;24.80;19.02;;;;;;;;;;5924512;30;20151;-78
2023/04/30 02:21:47;;;;;;;30.70;20.17;;;;;;;;;;5924053;29;20113;-78
2023/04/30 02:24:58;;;;;;;25.98;20.20;;;;;;;;;;5915832;30;20310;-79
2023/04/30 02:28:14;;;;;;;23.88;19.42;;;;;;;;;;5908544;30;20060;-79
2023/04/30 02:32:34;;;;;;;28.70;20.27;;;;;;;;;;5964921;29;20111;-78
2023/04/30 02:35:43;;;;;;;28.48;21.13;;;;;;;;;;5946531;29;20423;-79
2023/04/30 02:42:46;;;;;;;;;;;;;;;;;;6121136;29;20343;-79
2023/04/30 02:45:50;;;;;;;25.13;19.58;;;;;;;;;;6124818;29;19919;-77
2023/04/30 02:48:52;;;;;;;27.38;20.17;;;;;;;;;;6124507;29;20296;-79
2023/04/30 02:51:55;;;;;;;29.73;19.58;;;;;;;;;;6122273;29;20087;-78
2023/04/30 02:54:58;;;;;;;25.45;19.63;;;;;;;;;;6123588;29;20228;-79
2023/04/30 02:58:02;;;;;;;25.15;18.80;;;;;;;;;;6123233;29;20055;-78
2023/04/30 03:01:04;;;;;;;25.52;20.23;;;;;;;;;;6122838;29;20051;-79
2023/04/30 03:04:07;;;;;;;25.65;19.95;;;;;;;;;;6112987;29;20060;-79
2023/04/30 03:07:10;;;;;;;26.13;19.58;;;;;;;;;;6188544;28;20112;-79
2023/04/30 03:10:27;;;;;;;28.42;19.58;;;;;;;;;;6195232;28;20047;-79
2023/04/30 03:13:51;;;;;;;27.08;18.77;;;;;;;;;;6197324;28;20059;-79
2023/04/30 03:16:56;;;;;;;28.17;19.17;;;;;;;;;;6188775;28;20250;-79
2023/04/30 03:27:37;;;;;;;29.65;20.20;;;;;;;;;;6219712;28;20053;-79
2023/04/30 03:30:41;;;;;;;26.13;19.40;;;;;;;;;;6237267;28;20322;-78
2023/04/30 03:33:46;;;;;;;29.05;20.50;;;;;;;;;;6241346;28;20052;-78
2023/04/30 03:36:48;;;;;;;28.30;19.70;;;;;;;;;;6238357;28;20081;-79
2023/04/30 03:39:50;;;;;;;27.83;19.98;;;;;;;;;;6238360;28;20056;-79
2023/04/30 03:42:56;;;;;;;31.35;20.08;;;;;;;;;;6240416;28;20049;-79
2023/04/30 03:45:57;;;;;;;28.20;20.77;;;;;;;;;;6236312;28;21078;-79
2023/04/30 03:49:30;;;;;;;30.42;21.48;;;;;;;;;;6239834;28;20086;-79
2023/04/30 03:52:32;;;;;;;27.08;20.40;;;;;;;;;;6240480;28;20057;-79
2023/04/30 03:55:34;;;;;;;29.40;20.77;;;;;;;;;;6238005;28;20049;-79
2023/04/30 03:58:38;;;;;;;26.90;20.75;;;;;;;;;;6240552;28;20060;-79
2023/04/30 04:01:40;;;;;;;31.65;20.55;;;;;;;;;;6241386;28;20131;-79
2023/04/30 04:04:52;;;;;;;30.35;20.83;;;;;;;;;;6231710;28;20397;-79
2023/04/30 04:07:55;;;;;;;29.05;21.00;;;;;;;;;;6236783;28;20058;-79
2023/04/30 04:10:56;;;;;;;27.73;21.10;;;;;;;;;;6241261;28;20053;-79
2023/04/30 04:14:05;;;;;;;33.22;21.33;;;;;;;;;;6237044;28;20061;-79
2023/04/30 04:17:08;;;;;;;31.13;21.75;;;;;;;;;;6236744;28;20088;-78
2023/04/30 04:20:11;;;;;;;29.77;21.73;;;;;;;;;;6237166;28;20245;-79
2023/04/30 04:23:13;;;;;;;;;;;;;;;;;;6236341;28;20286;-79
2023/04/30 04:26:15;;;;;;;28.80;20.95;;;;;;;;;;6222797;28;19932;-79
2023/04/30 04:29:31;;;;;;;33.15;21.13;;;;;;;;;;6230226;28;20307;-79
2023/04/30 04:32:58;;;;;;;;;;;;;;;;;;;;;
2023/04/30 04:40:41;;;;;;;28.55;21.63;;;;;;;;;;6040423;29;20337;-79
2023/04/30 04:43:42;;;;;;;34.53;21.48;;;;;;;;;;6122495;29;20050;-78
2023/04/30 04:46:52;;;;;;;28.70;21.27;;;;;;;;;;6113933;29;20082;-79
2023/04/30 04:49:57;;;;;;;28.73;21.13;;;;;;;;;;6121967;29;20136;-78
2023/04/30 04:53:10;;;;;;;28.90;21.40;;;;;;;;;;6123296;29;20142;-79
2023/04/30 04:56:15;;;;;;;29.92;22.20;;;;;;;;;;6123393;29;20163;-79
2023/04/30 04:59:17;;;;;;;31.00;22.45;;;;;;;;;;6125238;29;20056;-79
2023/04/30 05:02:48;;;;;;;28.55;22.50;;;;;;;;;;6121851;29;20052;-79
2023/04/30 05:05:50;;;;;;;29.55;23.10;;;;;;;;;;6122347;29;20066;-79
2023/04/30 05:08:52;;;;;;;30.10;22.88;;;;;;;;;;6124486;29;20151;-79
2023/04/30 05:11:56;;;;;;;31.17;22.90;;;;;;;;;;6123595;29;20384;-79
2023/04/30 05:14:58;;;;;;;34.17;21.13;;;;;;;;;;6122388;28;20055;-79
2023/04/30 05:18:12;;;;;;;31.13;21.48;;;;;;;;;;6241413;28;20233;-79
2023/04/30 05:21:14;;;;;;;31.50;21.60;;;;;;;;;;6244320;28;20057;-79
2023/04/30 05:24:22;;;;;;;30.08;21.67;;;;;;;;;;6240090;28;20053;-79
2023/04/30 05:27:24;;;;;;;32.65;21.88;;;;;;;;;;6244913;28;20124;-79
2023/04/30 05:30:26;;;;;;;28.95;21.77;;;;;;;;;;6239665;28;20335;-78
2023/04/30 05:33:29;;;;;;;29.13;21.48;;;;;;;;;;6244222;28;20068;-78
2023/04/30 05:36:30;;;;;;;26.20;19.88;;;;;;;;;;6242766;28;20482;-79
2023/04/30 05:39:42;;;;;;;30.75;20.88;;;;;;;;;;6237592;28;20049;-79
2023/04/30 05:42:44;;;;;;;25.50;19.88;;;;;;;;;;6244731;28;20112;-79
2023/04/30 05:45:46;;;;;;;26.73;20.45;;;;;;;;;;6240333;28;20045;-79
2023/04/30 05:48:49;;;;;;;30.77;20.40;;;;;;;;;;6241992;28;20053;-79
2023/04/30 05:51:51;;;;;;;28.85;20.90;;;;;;;;;;6230014;28;20400;-79
2023/04/30 05:58:09;;;;;;;28.73;20.80;;;;;;;;;;6231437;28;20080;-79
2023/04/30 06:01:11;;;;;;;33.33;22.65;;;;;;;;;;6232750;28;20057;-79
2023/04/30 06:07:51;;;;;;;32.25;22.23;;;;;;;;;;6238333;28;20305;-79
2023/04/30 06:10:53;;;;;;;27.63;21.27;;;;;;;;;;6243863;28;20038;-79
2023/04/30 06:13:56;;;;;;;30.85;20.95;;;;;;;;;;6244280;28;20076;-79
2023/04/30 06:16:57;;;;;;;28.80;21.55;;;;;;;;;;6241066;28;20104;-79
2023/04/30 06:20:05;;;;;;;29.05;21.38;;;;;;;;;;6241875;28;20056;-78
2023/04/30 06:23:08;;;;;;;32.10;21.90;;;;;;;;;;6240948;28;20117;-79
2023/04/30 06:26:13;;;;;;;32.70;21.85;;;;;;;;;;6229814;28;20167;-79
2023/04/30 06:29:15;;;;;;;31.48;21.80;;;;;;;;;;6237886;28;20420;-79
2023/04/30 06:32:17;;;;;;;33.85;22.17;;;;;;;;;;6239175;28;20053;-79
2023/04/30 06:35:39;;;;;;;29.15;21.15;;;;;;;;;;6240445;28;20318;-79
2023/04/30 06:38:41;;;;;;;28.45;20.95;;;;;;;;;;6238563;28;20199;-79
2023/04/30 06:41:43;;;;;;;28.88;22.08;;;;;;;;;;6226695;28;20049;-78
2023/04/30 06:44:46;;;;;;;28.52;21.23;;;;;;;;;;6239396;28;20045;-79
2023/04/30 06:47:48;;;;;;;29.60;20.45;;;;;;;;;;6240655;28;20060;-79
2023/04/30 06:50:51;;;;;;;28.40;21.65;;;;;;;;;;6240905;28;20116;-79
2023/04/30 06:53:53;;;;;;;27.15;20.80;;;;;;;;;;6238816;28;20049;-78
2023/04/30 06:56:55;;;;;;;25.70;20.42;;;;;;;;;;6240825;28;20104;-78
2023/04/30 06:59:57;;;;;;;27.40;19.73;;;;;;;;;;6238744;28;20049;-78
2023/04/30 07:06:26;;;;;;;32.58;19.05;;;;;;;;;;6219210;28;20045;-78
2023/04/30 07:09:38;;;;;;;24.08;18.98;;;;;;;;;;6239107;28;20053;-79
2023/04/30 07:12:40;;;;;;;27.08;18.77;;;;;;;;;;6240284;28;20080;-79
2023/04/30 07:15:44;;;;;;;23.67;18.27;;;;;;;;;;6241706;28;20061;-79
2023/04/30 07:18:47;;;;;;;23.55;16.98;;;;;;;;;;6239216;28;20038;-79
2023/04/30 07:21:51;;;;;;;21.77;17.10;;;;;;;;;;6242230;28;20308;-78
2023/04/30 07:25:09;;;;;;;26.20;16.17;;;;;;;;;;6240744;28;20241;-79
2023/04/30 07:28:46;;;;;;;22.00;15.30;;;;;;;;;;6226086;28;20087;-79
2023/04/30 07:35:19;;;;;;;23.90;15.18;;;;;;;;;;6169092;28;20115;-78
2023/04/30 07:38:37;;;;;;;19.77;14.23;;;;;;;;;;6174232;28;20055;-78
2023/04/30 07:41:38;;;;;;;20.48;13.25;;;;;;;;;;6174208;28;20058;-78
2023/04/30 07:44:41;;;;;;;18.73;12.80;;;;;;;;;;6174654;28;20053;-79
2023/04/30 07:47:46;;;;;;;19.85;12.57;;;;;;;;;;6171918;28;20286;-78
2023/04/30 07:50:48;;;;;;;21.92;13.63;;;;;;;;;;6173851;28;20046;-79
2023/04/30 07:53:52;;;;;;;17.60;12.48;;;;;;;;;;6174650;28;20072;-79
2023/04/30 07:56:56;;;;;;;18.85;14.15;;;;;;;;;;6174754;28;20062;-79
2023/04/30 08:00:40;;;;;;;19.60;13.68;;;;;;;;;;6159716;28;20517;-79
2023/04/30 08:04:04;;;;;;;18.38;12.73;;;;;;;;;;6171209;28;20058;-78
2023/04/30 08:11:28;;;;;;;18.20;12.32;;;;;;;;;;6191558;28;20053;-79
2023/04/30 08:14:30;;;;;;;20.42;12.27;;;;;;;;;;6243288;28;20095;-79
2023/04/30 08:17:34;;;;;;;17.85;12.60;;;;;;;;;;6243787;28;20064;-78
2023/04/30 08:20:36;;;;;;;17.20;12.07;;;;;;;;;;6244657;28;20049;-78
2023/04/30 08:23:44;;;;;;;18.45;11.68;;;;;;;;;;6246805;28;20069;-78
2023/04/30 08:26:54;;;;;;;17.52;10.38;;;;;;;;;;6244361;28;20049;-78
2023/04/30 08:29:56;;;;;;;13.73;10.50;;;;;;;;;;6232652;28;20075;-79
2023/04/30 08:32:58;;;;;;;16.80;10.50;;;;;;;;;;6247164;28;20092;-78
2023/04/30 08:36:00;;;;;;;16.95;11.15;;;;;;;;;;6232136;28;20088;-79
2023/04/30 08:39:01;;;;;;;17.77;11.15;;;;;;;;;;6243943;28;20053;-78
2023/04/30 08:42:14;;;;;;;17.63;10.30;;;;;;;;;;6241235;28;20115;-78
2023/04/30 08:45:19;;;;;;;14.30;10.02;;;;;;;;;;6246045;28;20061;-78
2023/04/30 08:51:37;;;;;;;14.98;9.50;;;;;;;;;;6206104;28;20109;-79
2023/04/30 08:54:39;;;;;;;16.45;10.38;;;;;;;;;;6240541;28;20049;-79
2023/04/30 08:57:42;;;;;;;15.55;10.75;;;;;;;;;;6231394;28;20049;-79
2023/04/30 09:00:45;;;;;;;14.38;10.63;;;;;;;;;;6241172;28;20057;-79
2023/04/30 09:03:46;;;;;;;17.25;11.05;;;;;;;;;;6239711;28;20383;-78
2023/04/30 09:06:48;;;;;;;15.07;10.18;;;;;;;;;;6241536;28;20060;-78
2023/04/30 09:09:53;;;;;;;15.18;11.38;;;;;;;;;;6226436;28;20123;-79
2023/04/30 09:13:14;;;;;;;13.38;10.20;;;;;;;;;;6241911;28;20128;-79
2023/04/30 09:16:22;;;;;;;19.88;11.45;;;;;;;;;;6217649;28;20058;-78
2023/04/30 09:19:56;;;;;;;14.02;10.25;;;;;;;;;;6245495;28;20057;-78
2023/04/30 09:23:18;;;;;;;16.73;11.18;;;;;;;;;;6238761;28;20049;-79
2023/04/30 09:26:31;;;;;;;18.23;11.45;;;;;;;;;;6219636;28;20080;-78
2023/04/30 09:30:13;;;;;;;13.60;10.30;;;;;;;;;;6242641;28;20058;-78
2023/04/30 09:33:45;;;;;;;14.75;10.82;;;;;;;;;;6240817;28;20053;-79
2023/04/30 09:36:54;;;;;;;15.70;11.30;;;;;;;;;;6238417;28;20073;-79
2023/04/30 09:39:57;;;;;;;19.80;12.40;;;;;;;;;;6241053;28;20045;-78
2023/04/30 09:42:59;;;;;;;18.98;11.90;;;;;;;;;;6245289;28;20120;-78
2023/04/30 09:46:04;;;;;;;17.92;11.50;;;;;;;;;;6238663;28;20073;-78
2023/04/30 09:49:19;;;;;;;16.05;12.02;;;;;;;;;;6237993;28;20049;-79
2023/04/30 09:52:24;;;;;;;20.98;10.98;;;;;;;;;;6240628;28;20299;-79
2023/04/30 09:55:26;;;;;;;13.15;9.93;;;;;;;;;;6227319;28;20050;-78
2023/04/30 09:58:55;;;;;;;15.75;9.95;;;;;;;;;;6238337;28;20111;-78
2023/04/30 10:02:00;;;;;;;15.32;9.93;;;;;;;;;;6233604;28;20049;-78
2023/04/30 10:05:07;;;;;;;15.27;9.60;;;;;;;;;;6241270;28;20061;-79
2023/04/30 10:08:16;;;;;;;15.07;9.55;;;;;;;;;;6242856;28;20053;-78
2023/04/30 10:11:20;;;;;;;12.15;8.93;;;;;;;;;;6241022;28;20068;-78
2023/04/30 10:14:51;;;;;;;13.07;10.02;;;;;;;;;;6238524;28;20061;-79
2023/04/30 10:17:58;;;;;;;13.10;10.10;;;;;;;;;;6222094;28;20057;-78
2023/04/30 10:21:09;;;;;;;13.80;10.30;;;;;;;;;;6239976;28;20045;-78
2023/04/30 10:27:55;;;;;;;14.23;10.38;;;;;;;;;;6227496;28;20120;-78
2023/04/30 10:30:57;;;;;;;13.70;9.13;;;;;;;;;;6239337;28;20057;-79
2023/04/30 10:34:33;;;;;;;13.95;9.27;;;;;;;;;;6198150;28;20089;-79
2023/04/30 10:38:00;;;;;;;13.18;9.43;;;;;;;;;;6198545;28;20049;-79
2023/04/30 10:41:03;;;;;;;13.40;9.35;;;;;;;;;;6172597;28;20111;-79
2023/04/30 10:44:09;;;;;;;13.77;9.00;;;;;;;;;;6173076;28;20062;-79
2023/04/30 10:47:18;;;;;;;12.05;8.48;;;;;;;;;;6176533;28;20050;-78
2023/04/30 10:50:24;;;;;;;13.70;8.20;;;;;;;;;;6169563;28;20251;-79
2023/04/30 10:54:02;;;;;;;11.32;8.35;;;;;;;;;;6173498;28;20071;-79
2023/04/30 10:57:12;;;;;;;13.80;8.23;;;;;;;;;;6172748;28;20199;-79
2023/04/30 11:00:25;;;;;;;13.82;8.10;;;;;;;;;;6145993;28;20054;-79
2023/04/30 11:03:29;;;;;;;16.73;8.80;;;;;;;;;;6175338;28;20050;-78
2023/04/30 11:06:56;;;;;;;10.63;7.65;;;;;;;;;;6201668;28;20045;-79
2023/04/30 11:10:02;;;;;;;12.43;8.38;;;;;;;;;;6215378;28;20054;-79
2023/04/30 11:13:09;;;;;;;12.77;8.35;;;;;;;;;;6224498;28;20186;-78
2023/04/30 11:16:11;;;;;;;11.20;8.30;;;;;;;;;;6224071;28;20049;-78
2023/04/30 11:19:14;;;;;;;13.60;8.57;;;;;;;;;;6219806;28;20113;-79
2023/04/30 11:22:23;;;;;;;12.23;8.32;;;;;;;;;;6210635;28;20058;-78
2023/04/30 11:25:40;;;;;;;12.45;8.35;;;;;;;;;;6225151;28;20049;-78
2023/04/30 11:28:51;;;;;;;10.07;7.75;;;;;;;;;;6225616;28;20113;-78
2023/04/30 11:32:13;;;;;;;10.98;7.10;;;;;;;;;;6195461;28;20427;-78
2023/04/30 11:35:26;;;;;;;9.73;7.30;;;;;;;;;;6206513;28;20061;-79
2023/04/30 11:38:34;;;;;;;11.18;8.23;;;;;;;;;;6222441;28;20160;-78
2023/04/30 11:41:45;;;;;;;11.60;6.95;;;;;;;;;;6225831;28;20061;-79
2023/04/30 11:44:48;;;;;;;8.75;6.72;;;;;;;;;;6228646;28;20053;-79
2023/04/30 11:48:01;;;;;;;;;;;;;;;;;;;;;
2023/04/30 11:55:42;;;;;;;9.57;7.15;;;;;;;;;;6222348;28;20342;-78
2023/04/30 11:59:08;;;;;;;11.10;7.43;;;;;;;;;;6238125;28;20182;-78
2023/04/30 12:02:35;;;;;;;11.52;8.15;;;;;;;;;;6224912;28;20408;-78
2023/04/30 12:05:57;;;;;;;16.38;7.95;;;;;;;;;;6235028;28;20042;-79
2023/04/30 12:09:06;;;;;;;13.45;7.53;;;;;;;;;;6237192;28;20052;-78
2023/04/30 12:12:40;;;;;;;10.52;7.28;;;;;;;;;;6237408;28;20057;-78
2023/04/30 12:15:42;;;;;;;;;;;;;;;;;;6236727;28;20100;-78
2023/04/30 12:19:14;;;;;;;10.95;7.57;;;;;;;;;;6237557;28;19928;-78
2023/04/30 12:22:49;;;;;;;11.27;8.05;;;;;;;;;;6225221;28;20116;-78
2023/04/30 12:25:52;;;;;;;11.27;8.55;;;;;;;;;;6236981;28;20054;-78
2023/04/30 12:28:56;;;;;;;9.45;8.25;;;;;;;;;;6240610;28;20049;-78
2023/04/30 12:32:07;;;;;;;13.50;7.88;;;;;;;;;;6239778;28;20109;-78
2023/04/30 12:39:07;;;;;;;10.57;7.30;;;;;;;;;;6219029;28;20532;-78
2023/04/30 12:50:06;;;;;;;;;;;;;;;;;;;;;
2023/04/30 12:53:11;;;;;;;11.52;8.00;;;;;;;;;;6104987;29;20300;-78
2023/04/30 12:56:15;;;;;;;10.48;7.70;;;;;;;;;;6124946;29;20133;-78
2023/04/30 12:59:19;;;;;;;12.23;7.95;;;;;;;;;;6125748;28;20415;-78
2023/04/30 13:02:25;;;;;;;11.82;8.20;;;;;;;;;;6124119;29;20314;-78
2023/04/30 13:05:29;;;;;;;15.00;8.25;;;;;;;;;;6123172;29;20056;-78
2023/04/30 13:09:00;;;;;;;10.43;7.88;;;;;;;;;;6109847;29;20281;-78
2023/04/30 13:12:02;;;;;;;14.60;8.00;;;;;;;;;;6123855;29;20331;-78
2023/04/30 13:15:15;;;;;;;10.82;7.95;;;;;;;;;;6125984;29;20063;-78
2023/04/30 13:21:50;;;;;;;10.90;7.22;;;;;;;;;;6039595;29;20220;-78
2023/04/30 13:24:52;;;;;;;9.10;7.05;;;;;;;;;;6096797;28;20064;-78
2023/04/30 13:27:54;;;;;;;11.70;7.60;;;;;;;;;;6140253;28;20062;-78
2023/04/30 13:31:15;;;;;;;8.93;6.30;;;;;;;;;;6143824;28;20055;-79
2023/04/30 13:34:17;;;;;;;12.57;6.75;;;;;;;;;;6142565;28;20075;-79
2023/04/30 13:37:21;;;;;;;12.15;7.22;;;;;;;;;;6144248;28;20051;-79
2023/04/30 13:44:09;;;;;;;9.00;5.88;;;;;;;;;;6130767;28;20239;-79
2023/04/30 13:47:29;;;;;;;10.38;6.53;;;;;;;;;;6142864;28;20043;-79
2023/04/30 13:50:40;;;;;;;16.65;6.50;;;;;;;;;;6127817;28;20059;-78
2023/04/30 13:57:38;;;;;;;10.10;6.32;;;;;;;;;;6154135;28;20045;-78
2023/04/30 14:00:46;;;;;;;8.98;6.10;;;;;;;;;;6228976;28;20148;-78
2023/04/30 14:03:48;;;;;;;11.00;5.80;;;;;;;;;;6228595;28;20117;-78
2023/04/30 14:06:51;;;;;;;8.35;5.22;;;;;;;;;;6239898;28;20052;-78
2023/04/30 14:09:57;;;;;;;7.65;5.80;;;;;;;;;;6239550;28;20099;-78
2023/04/30 14:12:59;;;;;;;11.52;6.60;;;;;;;;;;6239304;28;20049;-78
2023/04/30 14:16:01;;;;;;;9.38;6.55;;;;;;;;;;6239075;28;20046;-78
2023/04/30 14:19:03;;;;;;;10.20;7.90;;;;;;;;;;6241500;28;20057;-78
2023/04/30 14:22:08;;;;;;;8.25;6.28;;;;;;;;;;6241317;28;20065;-78
2023/04/30 14:25:15;;;;;;;8.02;5.70;;;;;;;;;;6242149;28;20327;-78
2023/04/30 14:28:20;;;;;;;8.55;6.32;;;;;;;;;;6239808;28;20061;-78
2023/04/30 14:31:22;;;;;;;11.80;7.18;;;;;;;;;;6242313;28;20064;-78
2023/04/30 14:34:24;;;;;;;7.55;6.35;;;;;;;;;;6241094;28;20065;-78
2023/04/30 14:37:26;;;;;;;10.73;6.82;;;;;;;;;;6239154;28;20061;-79
2023/04/30 14:40:29;;;;;;;11.32;6.20;;;;;;;;;;6241064;28;20403;-78
2023/04/30 14:43:31;;;;;;;9.10;6.18;;;;;;;;;;6238069;28;20053;-78
2023/04/30 14:46:49;;;;;;;9.82;5.90;;;;;;;;;;6233640;28;20341;-78
2023/04/30 14:50:53;;;;;;;6.80;5.60;;;;;;;;;;6228098;28;20103;-78
2023/04/30 15:01:15;;;;;;;8.05;6.03;;;;;;;;;;6101151;29;20051;-79
2023/04/30 15:04:37;;;;;;;16.40;5.75;;;;;;;;;;6102763;29;20059;-78
2023/04/30 15:12:14;;;;;;;8.05;5.57;;;;;;;;;;6079193;29;20059;-77
2023/04/30 15:19:09;;;;;;;79.03;40.83;;;;;;;;;;6144344;28;20062;-79
2023/04/30 15:22:11;;;;;;;61.58;34.58;;;;;;;;;;6143940;28;20122;-78
2023/04/30 15:25:12;;;;;;;7.32;5.68;;;;;;;;;;6157401;28;20058;-78
2023/04/30 15:28:23;;;;;;;9.13;4.50;;;;;;;;;;6142975;28;20075;-78
2023/04/30 15:31:27;;;;;;;5.82;4.45;;;;;;;;;;6155559;28;20287;-78
2023/04/30 15:34:29;;;;;;;;;;;;;;;;;;6197735;28;20556;-79
2023/04/30 15:40:51;;;;;;;;;;;;;;;;;;6214753;28;19925;-78
2023/04/30 15:43:53;;;;;;;;;;;;;;;;;;6239800;28;19940;-78
2023/04/30 15:46:56;;;;;;;;;;;;;;;;;;6241042;28;19929;-78
2023/04/30 15:49:57;;;;;;;;;;;;;;;;;;6240577;28;19940;-78
2023/04/30 15:52:59;;;;;;;;;;;;;;;;;;6242915;28;20197;-78
2023/04/30 15:56:03;;;;;;;;;;;;;;;;;;6237362;28;19932;-78
2023/04/30 15:59:05;;;;;;;;;;;;;;;;;;6240360;28;19929;-78
2023/04/30 16:02:10;;;;;;;;;;;;;;;;;;6238953;28;19971;-79
2023/04/30 16:05:14;;;;;;;;;;;;;;;;;;6238749;28;19968;-78
2023/04/30 16:11:43;;;;;;;;;;;;;;;;;;6239105;28;19925;-78
2023/04/30 16:14:48;;;;;;;;;;;;;;;;;;6237945;28;19940;-79
2023/04/30 16:17:51;;;;;;;;;;;;;;;;;;6240228;28;19917;-79
2023/04/30 16:20:53;;;;;;;;;;;;;;;;;;6240374;28;19994;-78
2023/04/30 16:23:55;;;;;;;;;;;;;;;;;;6226260;28;20126;-77
2023/04/30 16:26:56;;;;;;;;;;;;;;;;;;6231719;28;19917;-78
2023/04/30 16:30:08;;;;;;;;;;;;;;;;;;6226637;28;19994;-78
2023/04/30 16:33:11;;;;;;;;;;;;;;;;;;6241920;28;19937;-79
2023/04/30 16:36:12;;;;;;;;;;;;;;;;;;6240293;28;19929;-77
2023/04/30 16:39:43;;;;;;;;;;;;;;;;;;6244749;28;19926;-79
2023/04/30 16:42:44;;;;;;;;;;;;;;;;;;6242945;28;19992;-76
2023/04/30 16:53:07;;;;;;;;;;;;;;;;;;6221428;28;19974;-78
2023/04/30 16:56:09;;;;;;;;;;;;;;;;;;6244818;28;19931;-76
2023/04/30 17:02:47;;;;;;;;;;;;;;;;;;6231793;28;19917;-75
2023/04/30 17:06:09;;;;;;;;;;;;;;;;;;6231592;28;19999;-77
2023/04/30 17:09:24;;;;;;;;;;;;;;;;;;6243731;28;19931;-77
2023/04/30 17:16:06;;;;;;;;;;;;;;;;;;6228333;28;19956;-77
2023/04/30 17:19:08;;;;;;;;;;;;;;;;;;6240859;28;20680;-77
2023/04/30 17:22:18;;;;;;;;;;;;;;;;;;6242957;28;19923;-78
2023/04/30 17:25:22;;;;;;;;;;;;;;;;;;6241320;28;19925;-77
2023/04/30 17:28:24;;;;;;;;;;;;;;;;;;6247204;28;19925;-78
2023/04/30 17:31:26;;;;;;;;;;;;;;;;;;6248077;28;19984;-78
2023/04/30 17:34:27;;;;;;;;;;;;;;;;;;6247635;28;19947;-78
2023/04/30 17:37:29;;;;;;;;;;;;;;;;;;6243118;28;20469;-77
2023/04/30 17:40:33;;;;;;;;;;;;;;;;;;6242415;28;19927;-77
2023/04/30 17:43:34;;;;;;;;;;;;;;;;;;6240039;28;19932;-77
2023/04/30 17:46:37;;;;;;;;;;;;;;;;;;6242867;28;19933;-78
2023/04/30 17:49:38;;;;;;;;;;;;;;;;;;6243410;28;19928;-75
2023/04/30 17:52:42;;;;;;;;;;;;;;;;;;6231093;28;19925;-78
2023/04/30 17:55:53;;;;;;;;;;;;;;;;;;6240122;28;19925;-76
2023/04/30 17:59:04;;;;;;;;;;;;;;;;;;6244135;28;19926;-77
2023/04/30 18:02:06;;;;;;;;;;;;;;;;;;6244076;28;19932;-77
2023/04/30 18:05:20;;;;;;;;;;;;;;;;;;6240441;28;19932;-77
2023/04/30 18:08:22;;;;;;;;;;;;;;;;;;6230610;28;19952;-77
2023/04/30 18:14:53;;;;;;;;;;;;;;;;;;6223400;28;19948;-77
2023/04/30 18:17:54;;;;;;;;;;;;;;;;;;6239598;28;19952;-78
2023/04/30 18:21:01;;;;;;;;;;;;;;;;;;6241489;28;20148;-77
2023/04/30 18:24:03;;;;;;;;;;;;;;;;;;6235846;28;20190;-76
2023/04/30 18:27:06;;;;;;;;;;;;;;;;;;6243963;28;19917;-75
2023/04/30 18:30:08;;;;;;;;;;;;;;;;;;6245865;28;19984;-76
2023/04/30 18:33:10;;;;;;;;;;;;;;;;;;6246765;28;19924;-77
2023/04/30 18:36:12;;;;;;;;;;;;;;;;;;6243879;28;20145;-75
2023/04/30 18:39:14;;;;;;;;;;;;;;;;;;6244953;28;19928;-76
2023/04/30 18:42:17;;;;;;;;;;;;;;;;;;6243010;28;20197;-74
2023/04/30 18:45:19;;;;;;;;;;;;;;;;;;6245911;28;19917;-75
2023/04/30 18:48:21;;;;;;;;;;;;;;;;;;6242908;28;19924;-76
2023/04/30 18:51:23;;;;;;;;;;;;;;;;;;6247707;28;19956;-74
2023/04/30 18:54:24;;;;;;;;;;;;;;;;;;6244142;28;19921;-73
2023/04/30 18:57:34;;;;;;;;;;;;;;;;;;6244349;28;19929;-73
2023/04/30 19:00:35;;;;;;;;;;;;;;;;;;6232484;28;19926;-74
2023/04/30 19:03:37;;;;;;;;;;;;;;;;;;6244974;28;19924;-74
2023/04/30 19:06:39;;;;;;;;;;;;;;;;;;6245885;28;19921;-73
2023/04/30 19:09:47;;;;;;;;;;;;;;;;;;6244124;28;19921;-75
2023/04/30 19:12:49;;;;;;;;;;;;;;;;;;6249958;28;20215;-75
2023/04/30 19:15:52;;;;;;;;;;;;;;;;;;6243294;28;19925;-76
2023/04/30 19:18:54;;;;;;;;;;;;;;;;;;6238019;28;19924;-75
2023/04/30 19:21:55;;;;;;;;;;;;;;;;;;6241037;28;19948;-75
2023/04/30 19:24:57;;;;;;;;;;;;;;;;;;6245862;28;20293;-75
2023/04/30 19:28:00;;;;;;;;;;;;;;;;;;6245585;28;19963;-75
2023/04/30 19:31:14;;;;;;;;;;;;;;;;;;6238471;28;20145;-76
2023/04/30 19:34:53;;;;;;;;;;;;;;;;;;6241184;28;20060;-77
2023/04/30 19:41:41;;;;;;;;;;;;;;;;;;6245972;28;20887;-73
2023/04/30 19:44:44;;;;;;;;;;;;;;;;;;6233353;28;19925;-74
2023/04/30 19:47:46;;;;;;;;;;;;;;;;;;6245417;28;20007;-73
2023/04/30 19:50:48;;;;;;;;;;;;;;;;;;6241826;28;19976;-76
2023/04/30 19:53:51;;;;;;;;;;;;;;;;;;6243566;28;19959;-76
2023/04/30 19:56:56;;;;;;;;;;;;;;;;;;6240018;28;19931;-75
2023/04/30 20:00:40;;;;;;;;;;;;;;;;;;;;;
2023/04/30 20:03:51;;;;;;;;;;;;;;;;;;6225850;28;19925;-79
2023/04/30 20:06:56;;;;;;;;;;;;;;;;;;6251764;28;20028;-78
2023/04/30 20:10:32;;;;;;;;;;;;;;;;;;6243990;28;19917;-78
2023/04/30 20:17:20;;;;;;;;;;;;;;;;;;6135514;28;19944;-78
2023/04/30 20:20:23;;;;;;;;;;;;;;;;;;6124582;29;19926;-78
2023/04/30 20:23:33;;;;;;;;;;;;;;;;;;6136409;29;19926;-78
2023/04/30 20:26:35;;;;;;;;;;;;;;;;;;6136216;29;20163;-79
2023/04/30 20:36:31;;;;;;;;;;;;;;;;;;6117268;29;19926;-79
2023/04/30 20:39:46;;;;;;;;;;;;;;;;;;6131798;29;20147;-79
2023/04/30 20:43:04;;;;;;;;;;;;;;;;;;6121941;28;19927;-79
2023/04/30 20:49:42;;;;;;;;;;;;;;;;;;6127497;29;19934;-79
2023/04/30 20:59:58;;;;;;;;;;;;;;;;;;6204071;28;19929;-79
2023/04/30 21:03:00;;;;;;;;;;;;;;;;;;6248395;28;19917;-79
2023/04/30 21:09:43;;;;;;;;;;;;;;;;;;6213114;28;19918;-79
2023/04/30 21:23:08;;;;;;;;;;;;;;;;;;6239196;28;20224;-79
2023/04/30 21:26:10;;;;;;;;;;;;;;;;;;6245169;28;19963;-79
2023/04/30 21:29:15;;;;;;;;;;;;;;;;;;6248341;28;19961;-79
2023/04/30 21:42:56;;;;;;;;;;;;;;;;;;6199491;28;19932;-79
2023/04/30 21:46:02;;;;;;;;;;;;;;;;;;6200471;28;19951;-79
2023/04/30 21:49:14;;;;;;;;;;;;;;;;;;;;;
2023/04/30 21:52:18;;;;;;;;;;;;;;;;;;6199198;28;20137;-79
2023/04/30 21:55:22;;;;;;;;;;;;;;;;;;6202491;28;19948;-79
2023/04/30 21:58:24;;;;;;;;;;;;;;;;;;6203558;28;20167;-78